sensor_id;sensor_type;location;lat;lon;timestamp;pressure;altitude;pressure_sealevel;temperature;humidity
81025;BME280;70500;50.292;6.666;2023-09-19T00:01:42;95905.84;;;23.05;58.50
81025;BME280;70500;50.292;6.666;2023-09-19T00:04:16;95912.31;;;23.07;58.30
81025;BME280;70500;50.292;6.666;2023-09-19T00:06:52;95912.59;;;23.04;58.75
81025;BME280;70500;50.292;6.666;2023-09-19T00:09:21;95916.53;;;23.08;58.30
81025;BME280;70500;50.292;6.666;2023-09-19T00:11:55;95907.56;;;23.08;58.27
81025;BME280;70500;50.292;6.666;2023-09-19T00:14:25;95911.84;;;23.03;58.30
81025;BME280;70500;50.292;6.666;2023-09-19T00:16:56;95920.31;;;23.05;58.57
81025;BME280;70500;50.292;6.666;2023-09-19T00:19:29;95918.31;;;23.06;58.27
81025;BME280;70500;50.292;6.666;2023-09-19T00:22:01;95926.31;;;23.04;58.47
81025;BME280;70500;50.292;6.666;2023-09-19T00:24:30;95913.84;;;23.03;58.80
81025;BME280;70500;50.292;6.666;2023-09-19T00:27:01;95924.09;;;23.02;58.95
81025;BME280;70500;50.292;6.666;2023-09-19T00:29:31;95922.31;;;23.05;58.26
81025;BME280;70500;50.292;6.666;2023-09-19T00:32:00;95924.09;;;23.02;58.83
81025;BME280;70500;50.292;6.666;2023-09-19T00:34:31;95916.59;;;23.03;58.59
81025;BME280;70500;50.292;6.666;2023-09-19T00:37:02;95915.09;;;23.02;58.95
81025;BME280;70500;50.292;6.666;2023-09-19T00:39:32;95913.16;;;22.96;58.75
81025;BME280;70500;50.292;6.666;2023-09-19T00:42:03;95909.91;;;22.98;58.58
81025;BME280;70500;50.292;6.666;2023-09-19T00:44:33;95909.66;;;22.96;59.02
81025;BME280;70500;50.292;6.666;2023-09-19T00:47:03;95911.38;;;22.99;58.99
81025;BME280;70500;50.292;6.666;2023-09-19T00:49:34;95906.19;;;22.95;59.03
81025;BME280;70500;50.292;6.666;2023-09-19T00:52:04;95916.94;;;22.93;58.87
81025;BME280;70500;50.292;6.666;2023-09-19T00:54:34;95917.25;;;22.90;58.85
81025;BME280;70500;50.292;6.666;2023-09-19T00:57:05;95913.44;;;22.93;58.86
81025;BME280;70500;50.292;6.666;2023-09-19T00:59:35;95915.97;;;22.91;58.96
81025;BME280;70500;50.292;6.666;2023-09-19T01:02:06;95917.47;;;22.92;59.57
81025;BME280;70500;50.292;6.666;2023-09-19T01:04:36;95917.25;;;22.90;59.00
81025;BME280;70500;50.292;6.666;2023-09-19T01:07:06;95917.25;;;22.90;59.24
81025;BME280;70500;50.292;6.666;2023-09-19T01:09:36;95917.47;;;22.92;59.75
81025;BME280;70500;50.292;6.666;2023-09-19T01:12:09;95914.50;;;22.90;59.24
81025;BME280;70500;50.292;6.666;2023-09-19T01:14:47;95923.75;;;22.87;59.88
81025;BME280;70500;50.292;6.666;2023-09-19T01:17:30;95921.25;;;22.89;59.61
81025;BME280;70500;50.292;6.666;2023-09-19T01:20:25;95927.75;;;22.86;59.79
81025;BME280;70500;50.292;6.666;2023-09-19T01:23:05;95926.78;;;22.83;60.04
81025;BME280;70500;50.292;6.666;2023-09-19T01:26:04;95934.00;;;22.86;59.77
81025;BME280;70500;50.292;6.666;2023-09-19T01:28:45;95926.31;;;22.79;60.22
81025;BME280;70500;50.292;6.666;2023-09-19T01:31:24;95921.06;;;22.81;59.97
81025;BME280;70500;50.292;6.666;2023-09-19T01:33:59;95919.84;;;22.77;60.44
81025;BME280;70500;50.292;6.666;2023-09-19T01:36:33;95938.78;;;22.80;60.31
81025;BME280;70500;50.292;6.666;2023-09-19T01:39:07;95929.06;;;22.79;60.58
81025;BME280;70500;50.292;6.666;2023-09-19T01:41:47;95936.53;;;22.79;60.04
81025;BME280;70500;50.292;6.666;2023-09-19T01:44:26;95956.69;;;22.87;60.43
81025;BME280;70500;50.292;6.666;2023-09-19T01:47:04;95957.25;;;22.80;60.50
81025;BME280;70500;50.292;6.666;2023-09-19T01:49:47;95958.25;;;22.77;60.66
81025;BME280;70500;50.292;6.666;2023-09-19T01:52:21;95958.22;;;22.82;60.30
81025;BME280;70500;50.292;6.666;2023-09-19T01:55:03;95963.25;;;22.78;60.26
81025;BME280;70500;50.292;6.666;2023-09-19T01:57:42;95962.78;;;22.74;60.51
81025;BME280;70500;50.292;6.666;2023-09-19T02:02:47;95967.25;;;22.77;60.10
81025;BME280;70500;50.292;6.666;2023-09-19T02:05:22;95965.75;;;22.76;60.31
81025;BME280;70500;50.292;6.666;2023-09-19T02:07:52;95970.50;;;22.76;60.03
81025;BME280;70500;50.292;6.666;2023-09-19T02:10:23;95968.06;;;22.72;60.78
81025;BME280;70500;50.292;6.666;2023-09-19T02:12:52;95969.81;;;22.70;60.25
81025;BME280;70500;50.292;6.666;2023-09-19T02:15:22;95972.34;;;22.68;60.85
81025;BME280;70500;50.292;6.666;2023-09-19T02:17:52;95975.53;;;22.72;60.53
81025;BME280;70500;50.292;6.666;2023-09-19T02:20:22;95984.53;;;22.72;60.49
81025;BME280;70500;50.292;6.666;2023-09-19T02:25:20;95983.22;;;22.73;60.35
81025;BME280;70500;50.292;6.666;2023-09-19T02:27:49;95978.56;;;22.68;61.03
81025;BME280;70500;50.292;6.666;2023-09-19T02:30:22;95972.06;;;22.71;60.61
81025;BME280;70500;50.292;6.666;2023-09-19T02:32:55;95982.78;;;22.69;60.70
81025;BME280;70500;50.292;6.666;2023-09-19T02:35:24;95977.06;;;22.67;61.46
81025;BME280;70500;50.292;6.666;2023-09-19T02:37:53;95977.06;;;22.67;60.79
81025;BME280;70500;50.292;6.666;2023-09-19T02:40:23;95980.09;;;22.63;60.87
81025;BME280;70500;50.292;6.666;2023-09-19T02:42:55;95983.81;;;22.66;60.92
81025;BME280;70500;50.292;6.666;2023-09-19T02:45:27;95979.06;;;22.67;60.85
81025;BME280;70500;50.292;6.666;2023-09-19T02:47:59;95984.06;;;22.68;61.13
81025;BME280;70500;50.292;6.666;2023-09-19T02:50:30;95984.31;;;22.64;60.86
81025;BME280;70500;50.292;6.666;2023-09-19T02:53:01;95985.59;;;22.58;61.35
81025;BME280;70500;50.292;6.666;2023-09-19T02:55:32;95979.34;;;22.63;61.31
81025;BME280;70500;50.292;6.666;2023-09-19T02:58:02;95990.56;;;22.59;61.52
81025;BME280;70500;50.292;6.666;2023-09-19T03:00:33;95996.56;;;22.63;61.06
81025;BME280;70500;50.292;6.666;2023-09-19T03:03:04;95991.81;;;22.64;61.61
81025;BME280;70500;50.292;6.666;2023-09-19T03:05:36;95996.56;;;22.63;61.50
81025;BME280;70500;50.292;6.666;2023-09-19T03:08:06;95999.28;;;22.63;61.96
81025;BME280;70500;50.292;6.666;2023-09-19T03:10:36;95984.84;;;22.63;61.46
81025;BME280;70500;50.292;6.666;2023-09-19T03:13:06;95991.81;;;22.64;61.83
81025;BME280;70500;50.292;6.666;2023-09-19T03:15:41;95993.31;;;22.65;61.54
81025;BME280;70500;50.292;6.666;2023-09-19T03:18:13;95989.56;;;22.62;61.48
81025;BME280;70500;50.292;6.666;2023-09-19T03:20:43;95993.56;;;22.61;61.73
81025;BME280;70500;50.292;6.666;2023-09-19T03:23:13;95992.84;;;22.61;61.62
81025;BME280;70500;50.292;6.666;2023-09-19T03:25:44;95993.59;;;22.56;61.75
81025;BME280;70500;50.292;6.666;2023-09-19T03:28:14;96000.78;;;22.59;61.73
81025;BME280;70500;50.292;6.666;2023-09-19T03:30:44;95998.31;;;22.61;61.54
81025;BME280;70500;50.292;6.666;2023-09-19T03:33:18;95990.34;;;22.57;61.40
81025;BME280;70500;50.292;6.666;2023-09-19T03:35:52;95987.09;;;22.59;61.61
81025;BME280;70500;50.292;6.666;2023-09-19T03:38:21;95986.84;;;22.57;61.51
81025;BME280;70500;50.292;6.666;2023-09-19T03:40:51;95985.34;;;22.61;60.95
81025;BME280;70500;50.292;6.666;2023-09-19T03:43:21;95985.34;;;22.56;60.52
81025;BME280;70500;50.292;6.666;2023-09-19T03:45:50;95987.69;;;22.46;59.68
81025;BME280;70500;50.292;6.666;2023-09-19T03:48:24;95986.94;;;22.46;59.91
81025;BME280;70500;50.292;6.666;2023-09-19T03:50:54;95995.88;;;22.52;59.87
81025;BME280;70500;50.292;6.666;2023-09-19T03:53:24;95985.69;;;22.47;59.80
81025;BME280;70500;50.292;6.666;2023-09-19T03:55:55;95988.16;;;22.50;59.83
81025;BME280;70500;50.292;6.666;2023-09-19T03:58:25;95989.41;;;22.49;60.29
81025;BME280;70500;50.292;6.666;2023-09-19T04:00:55;95990.91;;;22.50;59.99
81025;BME280;70500;50.292;6.666;2023-09-19T04:03:26;95993.19;;;22.46;60.27
81025;BME280;70500;50.292;6.666;2023-09-19T04:06:03;95988.44;;;22.47;60.16
81025;BME280;70500;50.292;6.666;2023-09-19T04:08:32;96001.13;;;22.50;60.16
81025;BME280;70500;50.292;6.666;2023-09-19T04:11:01;96002.41;;;22.43;60.24
81025;BME280;70500;50.292;6.666;2023-09-19T04:13:31;95996.47;;;22.39;60.35
81025;BME280;70500;50.292;6.666;2023-09-19T04:16:00;95998.94;;;22.43;60.42
81025;BME280;70500;50.292;6.666;2023-09-19T04:18:31;95997.69;;;22.44;60.43
81025;BME280;70500;50.292;6.666;2023-09-19T04:21:03;95997.22;;;22.40;60.16
81025;BME280;70500;50.292;6.666;2023-09-19T04:23:34;96004.69;;;22.39;60.62
81025;BME280;70500;50.292;6.666;2023-09-19T04:26:03;96010.69;;;22.38;60.62
81025;BME280;70500;50.292;6.666;2023-09-19T04:28:35;96010.41;;;22.41;60.61
81025;BME280;70500;50.292;6.666;2023-09-19T04:31:06;96018.41;;;22.39;60.55
81025;BME280;70500;50.292;6.666;2023-09-19T04:33:39;96008.41;;;22.42;60.24
81025;BME280;70500;50.292;6.666;2023-09-19T04:36:09;96009.44;;;22.39;60.54
81025;BME280;70500;50.292;6.666;2023-09-19T04:38:58;96009.50;;;22.33;61.12
81025;BME280;70500;50.292;6.666;2023-09-19T04:41:27;96011.69;;;22.35;60.42
81025;BME280;70500;50.292;6.666;2023-09-19T04:43:56;96016.66;;;22.36;60.88
81025;BME280;70500;50.292;6.666;2023-09-19T04:46:26;96020.63;;;22.41;60.38
81025;BME280;70500;50.292;6.666;2023-09-19T04:48:56;96020.41;;;22.39;60.64
81025;BME280;70500;50.292;6.666;2023-09-19T04:51:25;96020.13;;;22.42;60.94
81025;BME280;70500;50.292;6.666;2023-09-19T04:53:58;96022.84;;;22.48;60.37
81025;BME280;70500;50.292;6.666;2023-09-19T04:56:28;96017.13;;;22.46;60.39
81025;BME280;70500;50.292;6.666;2023-09-19T04:58:57;96017.16;;;22.40;59.88
81025;BME280;70500;50.292;6.666;2023-09-19T05:01:27;96023.84;;;22.45;60.22
81025;BME280;70500;50.292;6.666;2023-09-19T05:03:58;96021.53;;;22.54;59.74
81025;BME280;70500;50.292;6.666;2023-09-19T05:06:28;96020.84;;;22.48;60.15
81025;BME280;70500;50.292;6.666;2023-09-19T05:08:58;96024.75;;;22.58;59.69
81025;BME280;70500;50.292;6.666;2023-09-19T05:11:28;96038.97;;;22.57;59.69
81025;BME280;70500;50.292;6.666;2023-09-19T05:13:58;96035.97;;;22.55;60.06
81025;BME280;70500;50.292;6.666;2023-09-19T05:16:31;96032.50;;;22.60;60.12
81025;BME280;70500;50.292;6.666;2023-09-19T05:19:02;96037.19;;;22.59;59.77
81025;BME280;70500;50.292;6.666;2023-09-19T05:21:32;96042.97;;;22.56;60.06
81025;BME280;70500;50.292;6.666;2023-09-19T05:24:01;96048.44;;;22.61;59.85
81025;BME280;70500;50.292;6.666;2023-09-19T05:26:30;96050.44;;;22.55;60.53
81025;BME280;70500;50.292;6.666;2023-09-19T05:28:59;96046.75;;;22.53;59.97
81025;BME280;70500;50.292;6.666;2023-09-19T05:31:29;96054.16;;;22.58;60.04
81025;BME280;70500;50.292;6.666;2023-09-19T05:33:59;96063.41;;;22.55;60.06
81025;BME280;70500;50.292;6.666;2023-09-19T05:36:30;96067.63;;;22.61;59.90
81025;BME280;70500;50.292;6.666;2023-09-19T05:38:59;96062.66;;;22.60;60.22
81025;BME280;70500;50.292;6.666;2023-09-19T05:41:29;96068.38;;;22.62;60.32
81025;BME280;70500;50.292;6.666;2023-09-19T05:43:58;96070.63;;;22.63;60.05
81025;BME280;70500;50.292;6.666;2023-09-19T05:46:31;96067.59;;;22.67;59.93
81025;BME280;70500;50.292;6.666;2023-09-19T05:49:00;96082.56;;;22.66;60.27
81025;BME280;70500;50.292;6.666;2023-09-19T05:51:31;96082.06;;;22.68;60.28
81025;BME280;70500;50.292;6.666;2023-09-19T05:54:00;96090.78;;;22.72;59.83
81025;BME280;70500;50.292;6.666;2023-09-19T05:56:29;96094.78;;;22.71;60.01
81025;BME280;70500;50.292;6.666;2023-09-19T05:58:59;96099.31;;;22.62;60.24
81025;BME280;70500;50.292;6.666;2023-09-19T06:01:28;96098.81;;;22.64;60.13
81025;BME280;70500;50.292;6.666;2023-09-19T06:03:58;96103.50;;;22.69;60.48
81025;BME280;70500;50.292;6.666;2023-09-19T06:06:28;96120.00;;;22.58;60.07
81025;BME280;70500;50.292;6.666;2023-09-19T06:08:59;96118.00;;;22.58;60.03
81025;BME280;70500;50.292;6.666;2023-09-19T06:11:28;96121.50;;;22.64;60.08
81025;BME280;70500;50.292;6.666;2023-09-19T06:13:59;96121.00;;;22.66;60.14
81025;BME280;70500;50.292;6.666;2023-09-19T06:16:30;96122.75;;;22.63;59.62
81025;BME280;70500;50.292;6.666;2023-09-19T06:19:00;96123.00;;;22.60;59.34
81025;BME280;70500;50.292;6.666;2023-09-19T06:21:29;96128.75;;;22.56;58.87
81025;BME280;70500;50.292;6.666;2023-09-19T06:24:01;96126.75;;;22.57;58.84
81025;BME280;70500;50.292;6.666;2023-09-19T06:26:32;96135.94;;;22.59;58.85
81025;BME280;70500;50.292;6.666;2023-09-19T06:29:01;96138.72;;;22.54;58.58
81025;BME280;70500;50.292;6.666;2023-09-19T06:31:38;96147.44;;;22.58;58.83
81025;BME280;70500;50.292;6.666;2023-09-19T06:34:08;96152.50;;;22.48;58.70
81025;BME280;70500;50.292;6.666;2023-09-19T06:36:37;96142.44;;;22.56;58.52
81025;BME280;70500;50.292;6.666;2023-09-19T06:39:08;96135.47;;;22.55;58.36
81025;BME280;70500;50.292;6.666;2023-09-19T06:41:38;96129.47;;;22.57;58.53
81025;BME280;70500;50.292;6.666;2023-09-19T06:44:10;96131.47;;;22.62;58.86
81025;BME280;70500;50.292;6.666;2023-09-19T06:46:39;96140.00;;;22.53;58.86
81025;BME280;70500;50.292;6.666;2023-09-19T06:49:12;96138.00;;;22.53;58.53
81025;BME280;70500;50.292;6.666;2023-09-19T06:51:43;96146.94;;;22.54;58.75
81025;BME280;70500;50.292;6.666;2023-09-19T06:54:19;96142.44;;;22.56;58.64
81025;BME280;70500;50.292;6.666;2023-09-19T06:56:48;96149.25;;;22.50;58.62
81025;BME280;70500;50.292;6.666;2023-09-19T06:59:17;96150.50;;;22.49;58.57
81025;BME280;70500;50.292;6.666;2023-09-19T07:01:46;96150.50;;;22.43;58.34
81025;BME280;70500;50.292;6.666;2023-09-19T07:04:19;96150.00;;;22.50;58.71
81025;BME280;70500;50.292;6.666;2023-09-19T07:06:49;96163.47;;;22.43;58.63
81025;BME280;70500;50.292;6.666;2023-09-19T07:09:20;96158.47;;;22.47;58.51
81025;BME280;70500;50.292;6.666;2023-09-19T07:11:50;96155.72;;;22.52;58.70
81025;BME280;70500;50.292;6.666;2023-09-19T07:14:19;96161.00;;;22.39;58.96
81025;BME280;70500;50.292;6.666;2023-09-19T07:16:48;96158.47;;;22.47;58.15
81025;BME280;70500;50.292;6.666;2023-09-19T07:19:19;96157.50;;;22.44;58.13
81025;BME280;70500;50.292;6.666;2023-09-19T07:21:48;96160.41;;;22.57;58.47
81025;BME280;70500;50.292;6.666;2023-09-19T07:24:18;96157.66;;;22.57;58.42
81025;BME280;70500;50.292;6.666;2023-09-19T07:26:48;96159.22;;;22.47;58.85
81025;BME280;70500;50.292;6.666;2023-09-19T07:29:18;96159.00;;;22.40;58.20
81025;BME280;70500;50.292;6.666;2023-09-19T07:31:47;96162.94;;;22.50;58.92
81025;BME280;70500;50.292;6.666;2023-09-19T07:34:19;96155.00;;;22.41;58.43
81025;BME280;70500;50.292;6.666;2023-09-19T07:36:49;96159.94;;;22.53;59.03
81025;BME280;70500;50.292;6.666;2023-09-19T07:39:18;96166.41;;;22.56;59.12
81025;BME280;70500;50.292;6.666;2023-09-19T07:41:51;96160.47;;;22.46;58.94
81025;BME280;70500;50.292;6.666;2023-09-19T07:44:22;96161.41;;;22.54;59.12
81025;BME280;70500;50.292;6.666;2023-09-19T07:46:53;96160.22;;;22.50;59.29
81025;BME280;70500;50.292;6.666;2023-09-19T07:49:24;96161.66;;;22.56;59.43
81025;BME280;70500;50.292;6.666;2023-09-19T07:51:53;96159.91;;;22.64;59.16
81025;BME280;70500;50.292;6.666;2023-09-19T07:54:25;96153.44;;;22.56;58.77
81025;BME280;70500;50.292;6.666;2023-09-19T07:56:56;96153.94;;;22.55;59.46
81025;BME280;70500;50.292;6.666;2023-09-19T07:59:26;96148.00;;;22.51;57.91
81025;BME280;70500;50.292;6.666;2023-09-19T08:01:55;96154.25;;;22.40;58.54
81025;BME280;70500;50.292;6.666;2023-09-19T08:04:25;96148.03;;;22.40;57.59
81025;BME280;70500;50.292;6.666;2023-09-19T08:06:55;96159.31;;;22.30;57.41
81025;BME280;70500;50.292;6.666;2023-09-19T08:09:26;96163.75;;;22.39;57.35
81025;BME280;70500;50.292;6.666;2023-09-19T08:12:02;96161.25;;;22.36;56.80
81025;BME280;70500;50.292;6.666;2023-09-19T08:14:33;96166.28;;;22.31;56.90
81025;BME280;70500;50.292;6.666;2023-09-19T08:17:02;96182.97;;;22.34;56.86
81025;BME280;70500;50.292;6.666;2023-09-19T08:19:33;96185.81;;;22.11;57.24
81025;BME280;70500;50.292;6.666;2023-09-19T08:22:02;96181.75;;;22.23;57.00
81025;BME280;70500;50.292;6.666;2023-09-19T08:24:31;96182.78;;;22.20;56.25
81025;BME280;70500;50.292;6.666;2023-09-19T08:27:04;96189.50;;;22.19;56.83
81025;BME280;70500;50.292;6.666;2023-09-19T08:29:37;96201.75;;;22.13;56.48
81025;BME280;70500;50.292;6.666;2023-09-19T08:32:06;96198.72;;;22.16;56.62
81025;BME280;70500;50.292;6.666;2023-09-19T08:34:36;96198.97;;;22.18;56.51
81025;BME280;70500;50.292;6.666;2023-09-19T08:37:06;96193.97;;;22.22;56.98
81025;BME280;70500;50.292;6.666;2023-09-19T08:39:35;96198.22;;;22.23;56.63
81025;BME280;70500;50.292;6.666;2023-09-19T08:42:06;96194.03;;;22.11;56.74
81025;BME280;70500;50.292;6.666;2023-09-19T08:44:37;96197.75;;;22.14;56.22
81025;BME280;70500;50.292;6.666;2023-09-19T08:47:10;96207.50;;;22.04;55.69
81025;BME280;70500;50.292;6.666;2023-09-19T08:49:51;96188.56;;;22.00;55.40
81025;BME280;70500;50.292;6.666;2023-09-19T08:52:27;96198.53;;;21.97;55.75
81025;BME280;70500;50.292;6.666;2023-09-19T08:54:59;96199.53;;;22.00;55.67
81025;BME280;70500;50.292;6.666;2023-09-19T08:57:36;96204.00;;;22.09;55.86
81025;BME280;70500;50.292;6.666;2023-09-19T09:00:10;96204.06;;;21.92;55.46
81025;BME280;70500;50.292;6.666;2023-09-19T09:02:43;96205.78;;;21.89;55.04
81025;BME280;70500;50.292;6.666;2023-09-19T09:05:13;96214.97;;;21.97;55.41
81025;BME280;70500;50.292;6.666;2023-09-19T09:07:44;96211.28;;;21.95;55.47
81025;BME280;70500;50.292;6.666;2023-09-19T09:10:16;96214.00;;;21.95;55.29
81025;BME280;70500;50.292;6.666;2023-09-19T09:12:48;96217.00;;;21.86;54.67
81025;BME280;70500;50.292;6.666;2023-09-19T09:15:19;96212.53;;;21.94;54.93
81025;BME280;70500;50.292;6.666;2023-09-19T09:17:50;96213.25;;;21.94;55.51
81025;BME280;70500;50.292;6.666;2023-09-19T09:20:22;96210.00;;;21.96;54.94
81025;BME280;70500;50.292;6.666;2023-09-19T09:22:51;96212.25;;;21.97;55.04
81025;BME280;70500;50.292;6.666;2023-09-19T09:25:22;96213.75;;;21.93;55.25
81025;BME280;70500;50.292;6.666;2023-09-19T09:28:00;96204.81;;;21.87;54.61
81025;BME280;70500;50.292;6.666;2023-09-19T09:30:34;96206.25;;;21.99;55.42
81025;BME280;70500;50.292;6.666;2023-09-19T09:33:08;96210.75;;;22.02;55.60
81025;BME280;70500;50.292;6.666;2023-09-19T09:35:47;96207.25;;;22.02;55.19
81025;BME280;70500;50.292;6.666;2023-09-19T09:38:21;96206.00;;;22.03;55.17
81025;BME280;70500;50.292;6.666;2023-09-19T09:40:55;96207.78;;;21.94;54.40
81025;BME280;70500;50.292;6.666;2023-09-19T09:43:33;96200.81;;;21.88;54.44
81025;BME280;70500;50.292;6.666;2023-09-19T09:46:17;96201.03;;;22.01;54.60
81025;BME280;70500;50.292;6.666;2023-09-19T09:49:13;96197.78;;;21.97;54.89
81025;BME280;70500;50.292;6.666;2023-09-19T09:51:49;96202.03;;;21.98;54.63
81025;BME280;70500;50.292;6.666;2023-09-19T09:54:29;96190.81;;;22.02;54.98
81025;BME280;70500;50.292;6.666;2023-09-19T09:57:06;96196.03;;;22.00;55.08
81025;BME280;70500;50.292;6.666;2023-09-19T09:59:54;96198.78;;;22.05;54.97
81025;BME280;70500;50.292;6.666;2023-09-19T10:02:28;96187.34;;;21.95;54.49
81025;BME280;70500;50.292;6.666;2023-09-19T10:05:11;96188.34;;;21.92;53.27
81025;BME280;70500;50.292;6.666;2023-09-19T10:07:51;96185.63;;;21.87;53.34
81025;BME280;70500;50.292;6.666;2023-09-19T10:10:31;96185.88;;;21.89;53.13
81025;BME280;70500;50.292;6.666;2023-09-19T10:13:14;96173.66;;;21.90;53.28
81025;BME280;70500;50.292;6.666;2023-09-19T10:15:50;96185.63;;;21.81;53.17
81025;BME280;70500;50.292;6.666;2023-09-19T10:18:22;96180.91;;;21.76;53.53
81025;BME280;70500;50.292;6.666;2023-09-19T10:20:52;96173.66;;;21.95;53.41
81025;BME280;70500;50.292;6.666;2023-09-19T10:23:23;96184.88;;;21.92;53.79
81025;BME280;70500;50.292;6.666;2023-09-19T10:25:55;96184.13;;;21.80;53.56
81025;BME280;70500;50.292;6.666;2023-09-19T10:28:28;96184.63;;;21.84;53.76
81025;BME280;70500;50.292;6.666;2023-09-19T10:31:00;96172.91;;;21.78;53.68
81025;BME280;70500;50.292;6.666;2023-09-19T10:37:18;96169.69;;;21.91;53.62
81025;BME280;70500;50.292;6.666;2023-09-19T10:43:55;96182.13;;;21.92;53.30
81025;BME280;70500;50.292;6.666;2023-09-19T10:49:50;96173.16;;;21.86;53.00
81025;BME280;70500;50.292;6.666;2023-09-19T10:52:24;96181.63;;;21.93;53.25
81025;BME280;70500;50.292;6.666;2023-09-19T10:54:57;96182.34;;;22.05;52.56
81025;BME280;70500;50.292;6.666;2023-09-19T10:57:29;96175.84;;;22.08;52.32
81025;BME280;70500;50.292;6.666;2023-09-19T11:00:04;96192.53;;;22.10;52.31
81025;BME280;70500;50.292;6.666;2023-09-19T11:03:16;96183.31;;;22.08;51.63
81025;BME280;70500;50.292;6.666;2023-09-19T11:06:04;96200.03;;;22.04;51.13
81025;BME280;70500;50.292;6.666;2023-09-19T11:09:00;96177.34;;;22.04;50.92
81025;BME280;70500;50.292;6.666;2023-09-19T11:11:44;96175.84;;;22.08;50.73
81025;BME280;70500;50.292;6.666;2023-09-19T11:14:39;96175.09;;;22.08;50.19
81025;BME280;70500;50.292;6.666;2023-09-19T11:17:42;96179.34;;;22.09;49.39
81025;BME280;70500;50.292;6.666;2023-09-19T11:20:22;96181.81;;;22.12;49.71
81025;BME280;70500;50.292;6.666;2023-09-19T11:23:23;96173.34;;;22.10;50.01
81025;BME280;70500;50.292;6.666;2023-09-19T11:25:55;96180.03;;;22.20;50.15
81025;BME280;70500;50.292;6.666;2023-09-19T11:28:29;96185.25;;;22.24;50.01
81025;BME280;70500;50.292;6.666;2023-09-19T11:30:59;96180.03;;;22.20;49.83
81025;BME280;70500;50.292;6.666;2023-09-19T11:33:48;96182.50;;;22.24;49.88
81025;BME280;70500;50.292;6.666;2023-09-19T11:36:17;96170.53;;;22.27;50.02
81025;BME280;70500;50.292;6.666;2023-09-19T11:39:01;96179.75;;;22.29;49.92
81025;BME280;70500;50.292;6.666;2023-09-19T11:41:37;96171.53;;;22.29;49.64
81025;BME280;70500;50.292;6.666;2023-09-19T11:44:34;96160.31;;;22.27;49.82
81025;BME280;70500;50.292;6.666;2023-09-19T11:47:10;96167.28;;;22.28;49.96
81025;BME280;70500;50.292;6.666;2023-09-19T11:49:40;96170.53;;;22.27;49.62
81025;BME280;70500;50.292;6.666;2023-09-19T11:52:09;96172.03;;;22.28;49.29
81025;BME280;70500;50.292;6.666;2023-09-19T11:54:43;96171.31;;;22.22;49.60
81025;BME280;70500;50.292;6.666;2023-09-19T11:57:20;96183.25;;;22.24;49.50
81025;BME280;70500;50.292;6.666;2023-09-19T11:59:50;96175.03;;;22.24;51.42
81025;BME280;70500;50.292;6.666;2023-09-19T12:02:38;96185.75;;;22.22;50.98
81025;BME280;70500;50.292;6.666;2023-09-19T12:05:08;96190.50;;;22.22;51.29
81025;BME280;70500;50.292;6.666;2023-09-19T12:07:44;96190.00;;;22.18;51.14
81025;BME280;70500;50.292;6.666;2023-09-19T12:10:17;96196.47;;;22.26;50.75
81025;BME280;70500;50.292;6.666;2023-09-19T12:12:49;96192.72;;;22.23;50.32
81025;BME280;70500;50.292;6.666;2023-09-19T12:15:24;96180.28;;;22.22;50.35
81025;BME280;70500;50.292;6.666;2023-09-19T12:17:56;96186.00;;;22.24;49.78
81025;BME280;70500;50.292;6.666;2023-09-19T12:20:26;96188.00;;;22.18;48.87
81025;BME280;70500;50.292;6.666;2023-09-19T12:23:13;96191.25;;;22.22;49.36
81025;BME280;70500;50.292;6.666;2023-09-19T12:25:44;96188.50;;;22.22;48.89
81025;BME280;70500;50.292;6.666;2023-09-19T12:28:16;96181.50;;;22.27;49.22
81025;BME280;70500;50.292;6.666;2023-09-19T12:30:45;96178.00;;;22.26;48.99
81025;BME280;70500;50.292;6.666;2023-09-19T12:33:16;96180.50;;;22.30;48.78
81025;BME280;70500;50.292;6.666;2023-09-19T12:35:47;96180.75;;;22.32;48.84
81025;BME280;70500;50.292;6.666;2023-09-19T12:38:25;96175.53;;;22.28;48.70
81025;BME280;70500;50.292;6.666;2023-09-19T12:40:59;96174.78;;;22.28;48.59
81025;BME280;70500;50.292;6.666;2023-09-19T12:43:29;96166.78;;;22.30;47.79
81025;BME280;70500;50.292;6.666;2023-09-19T12:46:01;96166.28;;;22.31;48.32
81025;BME280;70500;50.292;6.666;2023-09-19T12:48:32;96170.53;;;22.33;47.64
81025;BME280;70500;50.292;6.666;2023-09-19T12:51:03;96161.81;;;22.23;47.92
81025;BME280;70500;50.292;6.666;2023-09-19T12:53:37;96159.59;;;22.21;47.28
81025;BME280;70500;50.292;6.666;2023-09-19T12:56:12;96152.88;;;22.17;47.59
81025;BME280;70500;50.292;6.666;2023-09-19T12:58:49;96152.34;;;22.29;47.63
81025;BME280;70500;50.292;6.666;2023-09-19T13:01:18;96152.28;;;22.35;47.78
81025;BME280;70500;50.292;6.666;2023-09-19T13:04:12;96139.53;;;22.43;47.43
81025;BME280;70500;50.292;6.666;2023-09-19T13:06:43;96157.50;;;22.44;47.59
81025;BME280;70500;50.292;6.666;2023-09-19T13:09:12;96149.28;;;22.39;47.38
81025;BME280;70500;50.292;6.666;2023-09-19T13:11:44;96144.31;;;22.37;47.72
81025;BME280;70500;50.292;6.666;2023-09-19T13:14:18;96139.56;;;22.38;47.19
81025;BME280;70500;50.292;6.666;2023-09-19T13:16:59;96156.53;;;22.36;47.63
81025;BME280;70500;50.292;6.666;2023-09-19T13:19:37;96148.09;;;22.34;47.33
81025;BME280;70500;50.292;6.666;2023-09-19T13:22:39;96150.06;;;22.34;47.48
81025;BME280;70500;50.292;6.666;2023-09-19T13:25:12;96152.09;;;22.27;47.21
81025;BME280;70500;50.292;6.666;2023-09-19T13:27:47;96153.84;;;22.25;46.95
81025;BME280;70500;50.292;6.666;2023-09-19T13:30:20;96153.81;;;22.30;46.80
81025;BME280;70500;50.292;6.666;2023-09-19T13:32:51;96147.88;;;22.15;46.26
81025;BME280;70500;50.292;6.666;2023-09-19T13:35:20;96142.38;;;22.26;46.04
81025;BME280;70500;50.292;6.666;2023-09-19T13:37:50;96144.81;;;22.36;46.10
81025;BME280;70500;50.292;6.666;2023-09-19T13:40:20;96143.56;;;22.37;45.66
81025;BME280;70500;50.292;6.666;2023-09-19T13:42:52;96138.56;;;22.41;45.56
81025;BME280;70500;50.292;6.666;2023-09-19T13:45:21;96131.78;;;22.47;45.60
81025;BME280;70500;50.292;6.666;2023-09-19T13:47:52;96132.53;;;22.48;45.46